sensor_id;sensor_type;location;lat;lon;timestamp;P1;durP1;ratioP1;P2;durP2;ratioP2
74459;SDS011;62902;48.854;9.292;2023-01-28T00:00:48;819.28;;;618.20;;
74459;SDS011;62902;48.854;9.292;2023-01-28T00:03:15;820.33;;;619.75;;
74459;SDS011;62902;48.854;9.292;2023-01-28T00:05:44;820.67;;;620.83;;
74459;SDS011;62902;48.854;9.292;2023-01-28T00:08:10;823.13;;;623.13;;
74459;SDS011;62902;48.854;9.292;2023-01-28T00:10:40;816.60;;;611.85;;
74459;SDS011;62902;48.854;9.292;2023-01-28T00:13:08;825.10;;;620.97;;
74459;SDS011;62902;48.854;9.292;2023-01-28T00:15:39;830.20;;;622.40;;
74459;SDS011;62902;48.854;9.292;2023-01-28T00:18:06;828.83;;;620.90;;
74459;SDS011;62902;48.854;9.292;2023-01-28T00:20:32;829.67;;;620.63;;
74459;SDS011;62902;48.854;9.292;2023-01-28T00:23:00;826.97;;;619.17;;
74459;SDS011;62902;48.854;9.292;2023-01-28T00:25:27;824.80;;;616.45;;
74459;SDS011;62902;48.854;9.292;2023-01-28T00:27:53;825.15;;;615.35;;
74459;SDS011;62902;48.854;9.292;2023-01-28T00:30:20;826.33;;;619.20;;
74459;SDS011;62902;48.854;9.292;2023-01-28T00:32:47;823.65;;;619.60;;
74459;SDS011;62902;48.854;9.292;2023-01-28T00:35:13;823.47;;;621.43;;
74459;SDS011;62902;48.854;9.292;2023-01-28T00:37:41;821.83;;;616.92;;
74459;SDS011;62902;48.854;9.292;2023-01-28T00:40:10;817.38;;;608.50;;
74459;SDS011;62902;48.854;9.292;2023-01-28T00:42:37;818.05;;;612.33;;
74459;SDS011;62902;48.854;9.292;2023-01-28T00:45:04;819.30;;;616.00;;
74459;SDS011;62902;48.854;9.292;2023-01-28T00:47:31;821.40;;;619.15;;
74459;SDS011;62902;48.854;9.292;2023-01-28T00:49:57;819.92;;;616.45;;
74459;SDS011;62902;48.854;9.292;2023-01-28T00:52:24;819.63;;;613.50;;
74459;SDS011;62902;48.854;9.292;2023-01-28T00:54:52;826.22;;;619.42;;
74459;SDS011;62902;48.854;9.292;2023-01-28T00:57:19;825.07;;;618.17;;
74459;SDS011;62902;48.854;9.292;2023-01-28T00:59:46;825.67;;;620.83;;
74459;SDS011;62902;48.854;9.292;2023-01-28T01:02:12;823.17;;;614.13;;
74459;SDS011;62902;48.854;9.292;2023-01-28T01:04:39;825.97;;;615.80;;
74459;SDS011;62902;48.854;9.292;2023-01-28T01:07:06;828.88;;;614.55;;
74459;SDS011;62902;48.854;9.292;2023-01-28T01:09:32;826.50;;;611.75;;
74459;SDS011;62902;48.854;9.292;2023-01-28T01:11:59;834.17;;;619.92;;
74459;SDS011;62902;48.854;9.292;2023-01-28T01:14:25;832.67;;;616.80;;
74459;SDS011;62902;48.854;9.292;2023-01-28T01:16:52;836.20;;;617.78;;
74459;SDS011;62902;48.854;9.292;2023-01-28T01:19:19;834.35;;;617.22;;
74459;SDS011;62902;48.854;9.292;2023-01-28T01:21:45;837.17;;;617.97;;
74459;SDS011;62902;48.854;9.292;2023-01-28T01:24:15;838.67;;;619.78;;
74459;SDS011;62902;48.854;9.292;2023-01-28T01:26:42;840.65;;;621.63;;
74459;SDS011;62902;48.854;9.292;2023-01-28T01:29:09;838.70;;;620.05;;
74459;SDS011;62902;48.854;9.292;2023-01-28T01:31:35;837.33;;;620.70;;
74459;SDS011;62902;48.854;9.292;2023-01-28T01:34:02;834.60;;;617.33;;
74459;SDS011;62902;48.854;9.292;2023-01-28T01:36:29;833.47;;;619.97;;
74459;SDS011;62902;48.854;9.292;2023-01-28T01:38:56;831.03;;;618.08;;
74459;SDS011;62902;48.854;9.292;2023-01-28T01:41:30;834.00;;;622.22;;
74459;SDS011;62902;48.854;9.292;2023-01-28T01:44:00;830.28;;;620.83;;
74459;SDS011;62902;48.854;9.292;2023-01-28T01:49:24;827.63;;;620.40;;
74459;SDS011;62902;48.854;9.292;2023-01-28T01:51:56;826.97;;;620.05;;
74459;SDS011;62902;48.854;9.292;2023-01-28T01:54:27;828.58;;;620.35;;
74459;SDS011;62902;48.854;9.292;2023-01-28T01:56:55;825.17;;;618.35;;
74459;SDS011;62902;48.854;9.292;2023-01-28T01:59:24;824.05;;;619.47;;
74459;SDS011;62902;48.854;9.292;2023-01-28T02:01:53;825.35;;;619.28;;
74459;SDS011;62902;48.854;9.292;2023-01-28T02:04:31;826.45;;;618.38;;
74459;SDS011;62902;48.854;9.292;2023-01-28T02:07:00;828.67;;;621.87;;
74459;SDS011;62902;48.854;9.292;2023-01-28T02:09:28;826.60;;;619.92;;
74459;SDS011;62902;48.854;9.292;2023-01-28T02:11:57;829.72;;;621.33;;
74459;SDS011;62902;48.854;9.292;2023-01-28T02:14:25;830.42;;;621.80;;
74459;SDS011;62902;48.854;9.292;2023-01-28T02:16:57;829.43;;;618.73;;
74459;SDS011;62902;48.854;9.292;2023-01-28T02:19:26;836.15;;;623.22;;
74459;SDS011;62902;48.854;9.292;2023-01-28T02:22:04;831.70;;;620.95;;
74459;SDS011;62902;48.854;9.292;2023-01-28T02:24:44;833.67;;;619.38;;
74459;SDS011;62902;48.854;9.292;2023-01-28T02:27:22;838.88;;;622.08;;
74459;SDS011;62902;48.854;9.292;2023-01-28T02:30:03;833.85;;;618.78;;
74459;SDS011;62902;48.854;9.292;2023-01-28T02:37:59;831.92;;;619.38;;
74459;SDS011;62902;48.854;9.292;2023-01-28T02:40:31;833.45;;;620.30;;
74459;SDS011;62902;48.854;9.292;2023-01-28T02:43:40;833.13;;;619.65;;
74459;SDS011;62902;48.854;9.292;2023-01-28T02:46:54;825.80;;;612.30;;
74459;SDS011;62902;48.854;9.292;2023-01-28T02:49:25;830.60;;;618.63;;
74459;SDS011;62902;48.854;9.292;2023-01-28T02:54:42;828.25;;;613.17;;
74459;SDS011;62902;48.854;9.292;2023-01-28T03:00:18;829.50;;;615.28;;
74459;SDS011;62902;48.854;9.292;2023-01-28T03:02:52;827.83;;;612.80;;
74459;SDS011;62902;48.854;9.292;2023-01-28T03:05:29;831.08;;;620.33;;
74459;SDS011;62902;48.854;9.292;2023-01-28T03:07:58;827.28;;;614.63;;
74459;SDS011;62902;48.854;9.292;2023-01-28T03:10:25;827.15;;;616.28;;
74459;SDS011;62902;48.854;9.292;2023-01-28T03:12:53;823.85;;;613.03;;
74459;SDS011;62902;48.854;9.292;2023-01-28T03:15:46;829.33;;;616.58;;
74459;SDS011;62902;48.854;9.292;2023-01-28T03:18:39;828.50;;;615.50;;
74459;SDS011;62902;48.854;9.292;2023-01-28T03:21:33;832.67;;;619.95;;
74459;SDS011;62902;48.854;9.292;2023-01-28T03:24:23;827.22;;;612.03;;
74459;SDS011;62902;48.854;9.292;2023-01-28T03:27:33;830.92;;;616.75;;
74459;SDS011;62902;48.854;9.292;2023-01-28T03:30:19;831.13;;;616.27;;
74459;SDS011;62902;48.854;9.292;2023-01-28T03:33:12;830.13;;;616.43;;
74459;SDS011;62902;48.854;9.292;2023-01-28T03:35:59;827.88;;;615.65;;
74459;SDS011;62902;48.854;9.292;2023-01-28T03:38:45;828.30;;;616.28;;
74459;SDS011;62902;48.854;9.292;2023-01-28T03:41:22;833.05;;;622.13;;
74459;SDS011;62902;48.854;9.292;2023-01-28T03:43:53;830.22;;;619.83;;
74459;SDS011;62902;48.854;9.292;2023-01-28T03:46:21;831.70;;;619.15;;
74459;SDS011;62902;48.854;9.292;2023-01-28T03:48:48;825.55;;;616.53;;
74459;SDS011;62902;48.854;9.292;2023-01-28T03:51:14;824.63;;;618.97;;
74459;SDS011;62902;48.854;9.292;2023-01-28T03:53:41;825.88;;;623.50;;
74459;SDS011;62902;48.854;9.292;2023-01-28T03:56:09;826.10;;;624.20;;
74459;SDS011;62902;48.854;9.292;2023-01-28T03:58:43;824.13;;;620.20;;
74459;SDS011;62902;48.854;9.292;2023-01-28T04:01:22;825.60;;;618.13;;
74459;SDS011;62902;48.854;9.292;2023-01-28T04:03:49;829.17;;;618.50;;
74459;SDS011;62902;48.854;9.292;2023-01-28T04:06:21;827.58;;;620.08;;
74459;SDS011;62902;48.854;9.292;2023-01-28T04:08:56;828.10;;;621.20;;
74459;SDS011;62902;48.854;9.292;2023-01-28T04:11:39;827.53;;;619.83;;
74459;SDS011;62902;48.854;9.292;2023-01-28T04:14:07;828.00;;;616.13;;
74459;SDS011;62902;48.854;9.292;2023-01-28T04:16:43;833.03;;;622.42;;
74459;SDS011;62902;48.854;9.292;2023-01-28T04:19:10;826.40;;;613.95;;
74459;SDS011;62902;48.854;9.292;2023-01-28T04:21:41;833.37;;;620.87;;
74459;SDS011;62902;48.854;9.292;2023-01-28T04:24:07;834.13;;;621.17;;
74459;SDS011;62902;48.854;9.292;2023-01-28T04:26:34;834.03;;;620.30;;
74459;SDS011;62902;48.854;9.292;2023-01-28T04:29:01;838.45;;;621.97;;
74459;SDS011;62902;48.854;9.292;2023-01-28T04:31:31;843.20;;;625.07;;
74459;SDS011;62902;48.854;9.292;2023-01-28T04:34:14;843.80;;;622.97;;
74459;SDS011;62902;48.854;9.292;2023-01-28T04:37:02;843.83;;;623.47;;
74459;SDS011;62902;48.854;9.292;2023-01-28T04:39:42;843.83;;;619.97;;
74459;SDS011;62902;48.854;9.292;2023-01-28T04:42:18;846.87;;;622.73;;
74459;SDS011;62902;48.854;9.292;2023-01-28T04:44:59;848.65;;;623.70;;
74459;SDS011;62902;48.854;9.292;2023-01-28T04:47:37;845.33;;;619.87;;
74459;SDS011;62902;48.854;9.292;2023-01-28T04:50:29;847.65;;;620.30;;
74459;SDS011;62902;48.854;9.292;2023-01-28T04:53:06;849.08;;;623.85;;
74459;SDS011;62902;48.854;9.292;2023-01-28T04:56:05;848.77;;;622.67;;
74459;SDS011;62902;48.854;9.292;2023-01-28T04:58:33;842.95;;;616.92;;
74459;SDS011;62902;48.854;9.292;2023-01-28T05:01:04;844.38;;;617.25;;
74459;SDS011;62902;48.854;9.292;2023-01-28T05:03:31;841.22;;;615.90;;
74459;SDS011;62902;48.854;9.292;2023-01-28T05:06:03;847.28;;;620.38;;
74459;SDS011;62902;48.854;9.292;2023-01-28T05:08:44;847.33;;;621.10;;
74459;SDS011;62902;48.854;9.292;2023-01-28T05:11:13;846.05;;;622.22;;
74459;SDS011;62902;48.854;9.292;2023-01-28T05:13:40;842.97;;;621.97;;
74459;SDS011;62902;48.854;9.292;2023-01-28T05:16:09;842.78;;;619.65;;
74459;SDS011;62902;48.854;9.292;2023-01-28T05:18:36;841.78;;;619.90;;
74459;SDS011;62902;48.854;9.292;2023-01-28T05:21:09;843.10;;;621.47;;
74459;SDS011;62902;48.854;9.292;2023-01-28T05:23:37;842.67;;;619.97;;
74459;SDS011;62902;48.854;9.292;2023-01-28T05:26:04;842.15;;;620.10;;
74459;SDS011;62902;48.854;9.292;2023-01-28T05:28:32;842.08;;;620.85;;
74459;SDS011;62902;48.854;9.292;2023-01-28T05:31:02;840.63;;;623.13;;
74459;SDS011;62902;48.854;9.292;2023-01-28T05:33:33;834.95;;;620.30;;
74459;SDS011;62902;48.854;9.292;2023-01-28T05:36:03;836.30;;;624.47;;
74459;SDS011;62902;48.854;9.292;2023-01-28T05:38:30;831.80;;;621.70;;
74459;SDS011;62902;48.854;9.292;2023-01-28T05:40:57;831.70;;;624.17;;
74459;SDS011;62902;48.854;9.292;2023-01-28T05:43:23;829.25;;;624.17;;
74459;SDS011;62902;48.854;9.292;2023-01-28T05:46:17;821.90;;;620.33;;
74459;SDS011;62902;48.854;9.292;2023-01-28T05:49:05;829.60;;;624.40;;
74459;SDS011;62902;48.854;9.292;2023-01-28T05:52:15;822.90;;;623.03;;
74459;SDS011;62902;48.854;9.292;2023-01-28T05:54:43;820.25;;;620.60;;
74459;SDS011;62902;48.854;9.292;2023-01-28T05:57:10;821.67;;;623.00;;
74459;SDS011;62902;48.854;9.292;2023-01-28T05:59:37;820.35;;;620.63;;
74459;SDS011;62902;48.854;9.292;2023-01-28T06:02:03;824.88;;;625.00;;
74459;SDS011;62902;48.854;9.292;2023-01-28T06:04:30;820.50;;;620.13;;
74459;SDS011;62902;48.854;9.292;2023-01-28T06:06:57;821.10;;;620.42;;
74459;SDS011;62902;48.854;9.292;2023-01-28T06:09:25;826.03;;;625.38;;
74459;SDS011;62902;48.854;9.292;2023-01-28T06:11:52;822.92;;;621.00;;
74459;SDS011;62902;48.854;9.292;2023-01-28T06:14:18;824.60;;;621.93;;
74459;SDS011;62902;48.854;9.292;2023-01-28T06:17:03;826.30;;;618.45;;
74459;SDS011;62902;48.854;9.292;2023-01-28T06:19:46;828.53;;;620.72;;
74459;SDS011;62902;48.854;9.292;2023-01-28T06:22:12;835.47;;;623.95;;
74459;SDS011;62902;48.854;9.292;2023-01-28T06:24:40;832.42;;;617.40;;
74459;SDS011;62902;48.854;9.292;2023-01-28T06:27:06;838.25;;;621.08;;
74459;SDS011;62902;48.854;9.292;2023-01-28T06:29:33;837.97;;;618.93;;
74459;SDS011;62902;48.854;9.292;2023-01-28T06:31:59;841.78;;;623.45;;
74459;SDS011;62902;48.854;9.292;2023-01-28T06:34:26;842.37;;;621.60;;
74459;SDS011;62902;48.854;9.292;2023-01-28T06:36:53;845.28;;;620.70;;
74459;SDS011;62902;48.854;9.292;2023-01-28T06:39:20;842.05;;;619.90;;
74459;SDS011;62902;48.854;9.292;2023-01-28T06:41:49;842.08;;;619.42;;
74459;SDS011;62902;48.854;9.292;2023-01-28T06:44:16;842.92;;;621.67;;
74459;SDS011;62902;48.854;9.292;2023-01-28T06:46:42;841.73;;;620.23;;
74459;SDS011;62902;48.854;9.292;2023-01-28T06:49:10;839.05;;;615.05;;
74459;SDS011;62902;48.854;9.292;2023-01-28T06:51:36;841.80;;;619.72;;
74459;SDS011;62902;48.854;9.292;2023-01-28T06:54:03;840.13;;;616.88;;
74459;SDS011;62902;48.854;9.292;2023-01-28T06:56:30;844.83;;;623.17;;
74459;SDS011;62902;48.854;9.292;2023-01-28T06:58:56;846.47;;;626.10;;
74459;SDS011;62902;48.854;9.292;2023-01-28T07:01:23;847.20;;;622.67;;
74459;SDS011;62902;48.854;9.292;2023-01-28T07:03:49;847.83;;;624.42;;
74459;SDS011;62902;48.854;9.292;2023-01-28T07:06:16;841.57;;;618.90;;
74459;SDS011;62902;48.854;9.292;2023-01-28T07:08:43;841.55;;;619.85;;
74459;SDS011;62902;48.854;9.292;2023-01-28T07:11:09;841.50;;;620.47;;
74459;SDS011;62902;48.854;9.292;2023-01-28T07:13:36;837.23;;;617.07;;
74459;SDS011;62902;48.854;9.292;2023-01-28T07:16:03;838.58;;;618.65;;
74459;SDS011;62902;48.854;9.292;2023-01-28T07:18:29;837.43;;;622.67;;
74459;SDS011;62902;48.854;9.292;2023-01-28T07:20:58;835.83;;;619.83;;
74459;SDS011;62902;48.854;9.292;2023-01-28T07:23:25;827.40;;;611.87;;
74459;SDS011;62902;48.854;9.292;2023-01-28T07:25:54;831.10;;;619.65;;
74459;SDS011;62902;48.854;9.292;2023-01-28T07:28:20;829.28;;;617.88;;
74459;SDS011;62902;48.854;9.292;2023-01-28T07:30:48;825.80;;;613.80;;
74459;SDS011;62902;48.854;9.292;2023-01-28T07:33:19;831.28;;;622.40;;
74459;SDS011;62902;48.854;9.292;2023-01-28T07:35:46;826.65;;;615.60;;
74459;SDS011;62902;48.854;9.292;2023-01-28T07:38:13;832.25;;;618.95;;
74459;SDS011;62902;48.854;9.292;2023-01-28T07:40:39;832.53;;;619.90;;
74459;SDS011;62902;48.854;9.292;2023-01-28T07:43:07;834.07;;;616.90;;
74459;SDS011;62902;48.854;9.292;2023-01-28T07:45:36;833.40;;;613.55;;
74459;SDS011;62902;48.854;9.292;2023-01-28T07:48:06;833.67;;;613.60;;
74459;SDS011;62902;48.854;9.292;2023-01-28T07:50:34;838.67;;;619.42;;
74459;SDS011;62902;48.854;9.292;2023-01-28T07:53:06;836.75;;;616.72;;
74459;SDS011;62902;48.854;9.292;2023-01-28T07:55:33;837.17;;;621.13;;
74459;SDS011;62902;48.854;9.292;2023-01-28T07:58:06;842.03;;;626.88;;
74459;SDS011;62902;48.854;9.292;2023-01-28T08:00:34;836.47;;;622.30;;
74459;SDS011;62902;48.854;9.292;2023-01-28T08:03:06;828.67;;;617.53;;
74459;SDS011;62902;48.854;9.292;2023-01-28T08:05:41;828.47;;;616.17;;
74459;SDS011;62902;48.854;9.292;2023-01-28T08:08:10;831.70;;;620.72;;
74459;SDS011;62902;48.854;9.292;2023-01-28T08:10:37;829.47;;;614.80;;
74459;SDS011;62902;48.854;9.292;2023-01-28T08:13:04;832.80;;;616.70;;
74459;SDS011;62902;48.854;9.292;2023-01-28T08:15:31;839.22;;;621.55;;
74459;SDS011;62902;48.854;9.292;2023-01-28T08:18:00;841.22;;;619.97;;
74459;SDS011;62902;48.854;9.292;2023-01-28T08:20:27;842.33;;;620.25;;
74459;SDS011;62902;48.854;9.292;2023-01-28T08:25:43;842.63;;;619.88;;
74459;SDS011;62902;48.854;9.292;2023-01-28T08:28:10;841.95;;;622.88;;
74459;SDS011;62902;48.854;9.292;2023-01-28T08:30:37;840.00;;;622.05;;
74459;SDS011;62902;48.854;9.292;2023-01-28T08:33:07;841.00;;;619.75;;
74459;SDS011;62902;48.854;9.292;2023-01-28T08:35:35;840.35;;;621.30;;
74459;SDS011;62902;48.854;9.292;2023-01-28T08:38:02;841.00;;;623.33;;
74459;SDS011;62902;48.854;9.292;2023-01-28T08:40:29;838.05;;;618.47;;
74459;SDS011;62902;48.854;9.292;2023-01-28T08:42:56;839.67;;;619.63;;
74459;SDS011;62902;48.854;9.292;2023-01-28T08:45:25;841.35;;;618.85;;
74459;SDS011;62902;48.854;9.292;2023-01-28T08:47:54;846.63;;;618.50;;
74459;SDS011;62902;48.854;9.292;2023-01-28T08:50:23;849.20;;;621.07;;
74459;SDS011;62902;48.854;9.292;2023-01-28T08:53:01;850.92;;;622.38;;
74459;SDS011;62902;48.854;9.292;2023-01-28T08:55:30;851.10;;;618.60;;
74459;SDS011;62902;48.854;9.292;2023-01-28T08:57:56;853.23;;;613.87;;
74459;SDS011;62902;48.854;9.292;2023-01-28T09:00:27;860.63;;;619.93;;
74459;SDS011;62902;48.854;9.292;2023-01-28T09:02:53;887.85;;;627.38;;
74459;SDS011;62902;48.854;9.292;2023-01-28T09:05:22;878.15;;;616.72;;
74459;SDS011;62902;48.854;9.292;2023-01-28T09:07:52;870.28;;;606.47;;
74459;SDS011;62902;48.854;9.292;2023-01-28T09:10:18;875.23;;;611.23;;
74459;SDS011;62902;48.854;9.292;2023-01-28T09:12:50;888.30;;;614.70;;
74459;SDS011;62902;48.854;9.292;2023-01-28T09:15:16;898.10;;;618.90;;
74459;SDS011;62902;48.854;9.292;2023-01-28T09:17:43;909.50;;;624.10;;
74459;SDS011;62902;48.854;9.292;2023-01-28T09:20:10;900.75;;;619.13;;
74459;SDS011;62902;48.854;9.292;2023-01-28T09:22:38;900.40;;;623.25;;
74459;SDS011;62902;48.854;9.292;2023-01-28T09:25:05;888.65;;;613.50;;
74459;SDS011;62902;48.854;9.292;2023-01-28T09:27:32;888.10;;;610.63;;
74459;SDS011;62902;48.854;9.292;2023-01-28T09:29:59;896.28;;;618.42;;
74459;SDS011;62902;48.854;9.292;2023-01-28T09:32:26;894.53;;;614.90;;
74459;SDS011;62902;48.854;9.292;2023-01-28T09:34:52;899.85;;;618.65;;
74459;SDS011;62902;48.854;9.292;2023-01-28T09:37:19;899.70;;;618.47;;
74459;SDS011;62902;48.854;9.292;2023-01-28T09:39:45;901.33;;;620.33;;
74459;SDS011;62902;48.854;9.292;2023-01-28T09:45:03;898.40;;;616.42;;
74459;SDS011;62902;48.854;9.292;2023-01-28T09:47:34;898.85;;;616.10;;
74459;SDS011;62902;48.854;9.292;2023-01-28T09:50:06;900.17;;;614.85;;
74459;SDS011;62902;48.854;9.292;2023-01-28T09:52:38;902.35;;;619.17;;
74459;SDS011;62902;48.854;9.292;2023-01-28T09:57:42;900.57;;;621.83;;
74459;SDS011;62902;48.854;9.292;2023-01-28T10:00:13;896.25;;;622.03;;
74459;SDS011;62902;48.854;9.292;2023-01-28T10:07:50;880.67;;;618.50;;
74459;SDS011;62902;48.854;9.292;2023-01-28T10:11:35;880.50;;;621.08;;
74459;SDS011;62902;48.854;9.292;2023-01-28T10:16:30;875.70;;;618.63;;
74459;SDS011;62902;48.854;9.292;2023-01-28T10:19:06;870.53;;;616.20;;
74459;SDS011;62902;48.854;9.292;2023-01-28T10:21:45;869.72;;;616.55;;
74459;SDS011;62902;48.854;9.292;2023-01-28T10:26:54;868.47;;;619.88;;
74459;SDS011;62902;48.854;9.292;2023-01-28T10:29:23;864.97;;;617.43;;
74459;SDS011;62902;48.854;9.292;2023-01-28T10:31:53;864.63;;;614.63;;
74459;SDS011;62902;48.854;9.292;2023-01-28T10:34:21;871.20;;;617.63;;
74459;SDS011;62902;48.854;9.292;2023-01-28T10:36:48;866.35;;;614.80;;
74459;SDS011;62902;48.854;9.292;2023-01-28T10:39:16;876.30;;;618.10;;
74459;SDS011;62902;48.854;9.292;2023-01-28T10:41:43;872.03;;;615.45;;
74459;SDS011;62902;48.854;9.292;2023-01-28T10:47:03;876.63;;;619.42;;
74459;SDS011;62902;48.854;9.292;2023-01-28T10:49:37;877.67;;;621.13;;
74459;SDS011;62902;48.854;9.292;2023-01-28T10:52:12;872.20;;;614.17;;
74459;SDS011;62902;48.854;9.292;2023-01-28T10:54:40;877.30;;;614.55;;
74459;SDS011;62902;48.854;9.292;2023-01-28T10:57:09;875.90;;;610.35;;
74459;SDS011;62902;48.854;9.292;2023-01-28T10:59:38;879.42;;;610.95;;
74459;SDS011;62902;48.854;9.292;2023-01-28T11:02:23;883.22;;;616.00;;
74459;SDS011;62902;48.854;9.292;2023-01-28T11:05:15;888.67;;;615.30;;
74459;SDS011;62902;48.854;9.292;2023-01-28T11:07:47;884.10;;;615.27;;
74459;SDS011;62902;48.854;9.292;2023-01-28T11:10:25;883.67;;;610.10;;
74459;SDS011;62902;48.854;9.292;2023-01-28T11:12:57;892.23;;;615.10;;
74459;SDS011;62902;48.854;9.292;2023-01-28T11:15:27;892.20;;;613.07;;
74459;SDS011;62902;48.854;9.292;2023-01-28T11:17:55;895.42;;;615.00;;
74459;SDS011;62902;48.854;9.292;2023-01-28T11:20:25;900.58;;;618.85;;
74459;SDS011;62902;48.854;9.292;2023-01-28T11:22:52;897.45;;;610.55;;
74459;SDS011;62902;48.854;9.292;2023-01-28T11:27:59;891.53;;;610.30;;
74459;SDS011;62902;48.854;9.292;2023-01-28T11:30:28;891.47;;;610.47;;
74459;SDS011;62902;48.854;9.292;2023-01-28T11:33:13;893.13;;;610.00;;
74459;SDS011;62902;48.854;9.292;2023-01-28T11:35:52;891.13;;;605.60;;
74459;SDS011;62902;48.854;9.292;2023-01-28T11:38:20;896.78;;;610.63;;
74459;SDS011;62902;48.854;9.292;2023-01-28T11:40:52;894.70;;;607.97;;
74459;SDS011;62902;48.854;9.292;2023-01-28T11:43:21;893.80;;;607.10;;
74459;SDS011;62902;48.854;9.292;2023-01-28T11:48:37;886.67;;;607.38;;
74459;SDS011;62902;48.854;9.292;2023-01-28T11:51:22;886.13;;;604.50;;
74459;SDS011;62902;48.854;9.292;2023-01-28T11:59:37;882.30;;;604.72;;
74459;SDS011;62902;48.854;9.292;2023-01-28T12:08:28;878.97;;;609.13;;
74459;SDS011;62902;48.854;9.292;2023-01-28T12:22:42;877.05;;;598.35;;
74459;SDS011;62902;48.854;9.292;2023-01-28T12:25:05;878.28;;;601.78;;
74459;SDS011;62902;48.854;9.292;2023-01-28T12:27:45;876.97;;;603.22;;
74459;SDS011;62902;48.854;9.292;2023-01-28T12:30:23;874.78;;;605.78;;
74459;SDS011;62902;48.854;9.292;2023-01-28T12:39:00;866.97;;;601.55;;
74459;SDS011;62902;48.854;9.292;2023-01-28T12:41:41;868.53;;;600.70;;
74459;SDS011;62902;48.854;9.292;2023-01-28T12:44:16;866.70;;;598.90;;
74459;SDS011;62902;48.854;9.292;2023-01-28T12:46:59;869.58;;;595.33;;
74459;SDS011;62902;48.854;9.292;2023-01-28T12:54:44;854.00;;;596.05;;
74459;SDS011;62902;48.854;9.292;2023-01-28T12:57:22;850.15;;;597.00;;
74459;SDS011;62902;48.854;9.292;2023-01-28T12:59:55;850.37;;;598.40;;
74459;SDS011;62902;48.854;9.292;2023-01-28T13:02:34;851.03;;;598.73;;
74459;SDS011;62902;48.854;9.292;2023-01-28T13:05:09;851.50;;;599.78;;
74459;SDS011;62902;48.854;9.292;2023-01-28T13:07:42;849.53;;;597.20;;
74459;SDS011;62902;48.854;9.292;2023-01-28T13:10:24;855.30;;;598.70;;
74459;SDS011;62902;48.854;9.292;2023-01-28T13:12:53;855.77;;;595.53;;
74459;SDS011;62902;48.854;9.292;2023-01-28T13:15:21;860.50;;;598.40;;
74459;SDS011;62902;48.854;9.292;2023-01-28T13:20:45;870.03;;;598.60;;
74459;SDS011;62902;48.854;9.292;2023-01-28T13:25:51;872.00;;;598.55;;
74459;SDS011;62902;48.854;9.292;2023-01-28T13:30:59;874.42;;;599.20;;
74459;SDS011;62902;48.854;9.292;2023-01-28T13:33:28;876.22;;;600.22;;
74459;SDS011;62902;48.854;9.292;2023-01-28T13:36:00;875.08;;;600.58;;
74459;SDS011;62902;48.854;9.292;2023-01-28T13:38:29;875.38;;;600.90;;
74459;SDS011;62902;48.854;9.292;2023-01-28T13:40:57;870.95;;;598.38;;
74459;SDS011;62902;48.854;9.292;2023-01-28T13:45:59;869.95;;;600.85;;
74459;SDS011;62902;48.854;9.292;2023-01-28T13:48:31;870.90;;;600.63;;
74459;SDS011;62902;48.854;9.292;2023-01-28T13:50:58;869.53;;;601.30;;
74459;SDS011;62902;48.854;9.292;2023-01-28T13:56:09;870.63;;;600.08;;
74459;SDS011;62902;48.854;9.292;2023-01-28T14:01:37;873.77;;;598.43;;
74459;SDS011;62902;48.854;9.292;2023-01-28T14:09:32;875.08;;;599.50;;
74459;SDS011;62902;48.854;9.292;2023-01-28T14:12:22;879.45;;;602.03;;
74459;SDS011;62902;48.854;9.292;2023-01-28T14:15:02;875.88;;;595.05;;
74459;SDS011;62902;48.854;9.292;2023-01-28T14:17:52;881.00;;;602.37;;
74459;SDS011;62902;48.854;9.292;2023-01-28T14:20:42;882.05;;;599.50;;
74459;SDS011;62902;48.854;9.292;2023-01-28T14:23:19;872.80;;;599.33;;
74459;SDS011;62902;48.854;9.292;2023-01-28T14:26:02;866.83;;;595.67;;
74459;SDS011;62902;48.854;9.292;2023-01-28T14:34:08;861.92;;;601.42;;
74459;SDS011;62902;48.854;9.292;2023-01-28T14:36:40;862.08;;;599.17;;
74459;SDS011;62902;48.854;9.292;2023-01-28T14:39:11;859.92;;;599.63;;
74459;SDS011;62902;48.854;9.292;2023-01-28T14:41:41;858.88;;;599.15;;
74459;SDS011;62902;48.854;9.292;2023-01-28T14:44:10;856.22;;;595.45;;
74459;SDS011;62902;48.854;9.292;2023-01-28T14:46:45;857.65;;;600.95;;
74459;SDS011;62902;48.854;9.292;2023-01-28T14:55:29;857.63;;;599.20;;
74459;SDS011;62902;48.854;9.292;2023-01-28T14:58:03;850.60;;;601.13;;
74459;SDS011;62902;48.854;9.292;2023-01-28T15:00:31;847.55;;;600.45;;
74459;SDS011;62902;48.854;9.292;2023-01-28T15:02:59;847.30;;;602.92;;
74459;SDS011;62902;48.854;9.292;2023-01-28T15:05:32;844.60;;;597.80;;
74459;SDS011;62902;48.854;9.292;2023-01-28T15:07:59;850.03;;;603.50;;
74459;SDS011;62902;48.854;9.292;2023-01-28T15:10:26;849.53;;;600.20;;
74459;SDS011;62902;48.854;9.292;2023-01-28T15:12:57;848.30;;;600.10;;
74459;SDS011;62902;48.854;9.292;2023-01-28T15:15:32;845.47;;;600.90;;
74459;SDS011;62902;48.854;9.292;2023-01-28T15:18:16;840.93;;;594.60;;
74459;SDS011;62902;48.854;9.292;2023-01-28T15:20:47;840.63;;;600.35;;
74459;SDS011;62902;48.854;9.292;2023-01-28T15:23:16;842.55;;;607.50;;
74459;SDS011;62902;48.854;9.292;2023-01-28T15:25:45;836.72;;;601.30;;
74459;SDS011;62902;48.854;9.292;2023-01-28T15:28:16;840.75;;;606.97;;
74459;SDS011;62902;48.854;9.292;2023-01-28T15:30:57;840.53;;;602.90;;
74459;SDS011;62902;48.854;9.292;2023-01-28T15:33:25;846.78;;;602.28;;
74459;SDS011;62902;48.854;9.292;2023-01-28T15:35:53;844.30;;;605.15;;
74459;SDS011;62902;48.854;9.292;2023-01-28T15:38:24;848.22;;;605.78;;
74459;SDS011;62902;48.854;9.292;2023-01-28T15:41:00;849.08;;;609.50;;
74459;SDS011;62902;48.854;9.292;2023-01-28T15:43:28;846.60;;;601.95;;
74459;SDS011;62902;48.854;9.292;2023-01-28T15:45:56;851.67;;;606.78;;
74459;SDS011;62902;48.854;9.292;2023-01-28T15:48:24;853.40;;;607.47;;
74459;SDS011;62902;48.854;9.292;2023-01-28T15:53:33;849.88;;;602.42;;
74459;SDS011;62902;48.854;9.292;2023-01-28T15:56:05;846.22;;;600.70;;
74459;SDS011;62902;48.854;9.292;2023-01-28T15:58:33;848.05;;;602.90;;
74459;SDS011;62902;48.854;9.292;2023-01-28T16:03:36;849.87;;;606.87;;
74459;SDS011;62902;48.854;9.292;2023-01-28T16:06:08;846.07;;;604.07;;
74459;SDS011;62902;48.854;9.292;2023-01-28T16:08:38;846.53;;;602.30;;
74459;SDS011;62902;48.854;9.292;2023-01-28T16:11:07;849.90;;;603.20;;
74459;SDS011;62902;48.854;9.292;2023-01-28T16:13:34;849.42;;;607.78;;
74459;SDS011;62902;48.854;9.292;2023-01-28T16:16:02;844.75;;;601.20;;